createdAt,value
2022-08-11T00:02:00.768Z,101057.78
2022-08-11T00:04:36.068Z,101048.06
2022-08-11T00:07:06.184Z,101060.50
2022-08-11T00:09:39.271Z,101056.97
2022-08-11T00:12:17.159Z,101060.66
2022-08-11T00:14:45.021Z,101063.00
2022-08-11T00:17:14.958Z,101057.59
2022-08-11T00:20:12.136Z,101061.47
2022-08-11T00:22:39.233Z,101056.38
2022-08-11T00:25:20.270Z,101071.56
2022-08-11T00:27:48.564Z,101068.50
2022-08-11T00:30:16.560Z,101066.25
2022-08-11T00:32:55.507Z,101067.22
2022-08-11T00:35:52.055Z,101064.09
2022-08-11T00:38:17.351Z,101061.44
2022-08-11T00:41:16.097Z,101052.00
2022-08-11T00:44:19.726Z,101060.09
2022-08-11T00:47:11.459Z,101056.09
2022-08-11T00:49:53.397Z,101054.91
2022-08-11T00:52:48.158Z,101058.53
2022-08-11T00:55:47.314Z,101059.53
2022-08-11T00:58:44.995Z,101058.72
2022-08-11T01:01:17.910Z,101055.03
2022-08-11T01:04:56.054Z,101048.03
2022-08-11T01:08:01.524Z,101050.63
2022-08-11T01:10:54.657Z,101063.22
2022-08-11T01:13:53.325Z,101062.28
2022-08-11T01:16:56.913Z,101058.53
2022-08-11T01:20:45.169Z,101052.47
2022-08-11T01:23:41.900Z,101061.09
2022-08-11T01:26:56.120Z,101061.94
2022-08-11T01:30:33.029Z,101058.78
2022-08-11T01:33:28.022Z,101060.19
2022-08-11T01:36:37.874Z,101054.41
2022-08-11T01:39:32.645Z,101059.63
2022-08-11T01:42:45.940Z,101073.13
2022-08-11T01:45:57.180Z,101063.47
2022-08-11T01:48:42.517Z,101067.13
2022-08-11T01:51:33.981Z,101066.84
2022-08-11T01:54:27.658Z,101066.34
2022-08-11T01:57:09.873Z,101061.84
2022-08-11T01:59:50.432Z,101075.59
2022-08-11T02:02:53.872Z,101073.53
2022-08-11T02:05:43.634Z,101076.94
2022-08-11T02:08:50.722Z,101075.72
2022-08-11T02:11:30.965Z,101072.81
2022-08-11T02:15:05.294Z,101071.28
2022-08-11T02:18:13.402Z,101075.88
2022-08-11T02:21:17.726Z,101071.41
2022-08-11T02:24:05.836Z,101076.69
2022-08-11T02:26:44.484Z,101072.47
2022-08-11T02:30:18.659Z,101066.69
2022-08-11T02:33:27.427Z,101063.97
2022-08-11T02:35:57.662Z,101057.38
2022-08-11T02:39:10.025Z,101058.31
2022-08-11T02:42:42.471Z,101058.19
2022-08-11T02:45:37.767Z,101057.84
2022-08-11T02:48:52.191Z,101058.78
2022-08-11T02:52:05.389Z,101054.19
2022-08-11T02:54:44.512Z,101057.69
2022-08-11T02:57:31.065Z,101058.81
2022-08-11T03:00:14.286Z,101062.19
2022-08-11T03:03:21.474Z,101060.34
2022-08-11T03:06:44.992Z,101064.09
2022-08-11T03:09:25.079Z,101066.09
2022-08-11T03:12:36.661Z,101060.47
2022-08-11T03:15:46.317Z,101064.41
2022-08-11T03:18:26.855Z,101059.03
2022-08-11T03:22:01.695Z,101056.03
2022-08-11T03:24:46.379Z,101069.88
2022-08-11T03:27:53.797Z,101062.88
2022-08-11T03:31:19.246Z,101068.13
2022-08-11T03:34:07.895Z,101071.22
2022-08-11T03:37:38.187Z,101066.56
2022-08-11T03:40:46.928Z,101068.44
2022-08-11T03:43:58.115Z,101076.81
2022-08-11T03:47:07.883Z,101066.00
2022-08-11T03:50:08.936Z,101076.28
2022-08-11T03:53:13.941Z,101075.94
2022-08-11T03:56:11.549Z,101078.75
2022-08-11T03:59:22.319Z,101076.84
2022-08-11T04:02:31.296Z,101083.63
2022-08-11T04:06:07.309Z,101078.59
2022-08-11T04:09:02.058Z,101084.56
2022-08-11T04:11:46.861Z,101076.91
2022-08-11T04:15:01.479Z,101073.13
2022-08-11T04:17:57.674Z,101078.66
2022-08-11T04:21:05.097Z,101075.66
2022-08-11T04:24:33.378Z,101080.91
2022-08-11T04:27:22.507Z,101077.13
2022-08-11T04:30:17.949Z,101065.66
2022-08-11T04:33:35.194Z,101079.03
2022-08-11T04:36:09.550Z,101082.72
2022-08-11T04:39:19.993Z,101082.97
2022-08-11T04:42:36.920Z,101081.69
2022-08-11T04:45:24.165Z,101081.97
2022-08-11T04:48:52.472Z,101082.38
2022-08-11T04:52:37.600Z,101084.56
2022-08-11T04:56:04.270Z,101080.63
2022-08-11T04:59:26.837Z,101083.91
2022-08-11T05:02:41.274Z,101087.53
2022-08-11T05:05:56.362Z,101089.00
2022-08-11T05:08:29.563Z,101099.28
2022-08-11T05:11:34.803Z,101094.63
2022-08-11T05:14:48.072Z,101095.28
2022-08-11T05:18:19.773Z,101101.34
2022-08-11T05:21:14.755Z,101088.19
2022-08-11T05:24:07.479Z,101097.78
2022-08-11T05:27:12.898Z,101097.47
2022-08-11T05:30:07.099Z,101098.63
2022-08-11T05:33:02.197Z,101104.91
2022-08-11T05:36:00.108Z,101107.03
2022-08-11T05:38:54.699Z,101112.13
2022-08-11T05:41:45.505Z,101100.56
2022-08-11T05:44:39.250Z,101106.66
2022-08-11T05:47:25.813Z,101111.84
2022-08-11T05:50:13.723Z,101107.19
2022-08-11T05:53:05.155Z,101112.47
2022-08-11T05:56:02.876Z,101115.69
2022-08-11T05:58:44.432Z,101121.00
2022-08-11T06:01:21.468Z,101123.38
2022-08-11T06:04:11.563Z,101120.03
2022-08-11T06:06:47.078Z,101124.47
2022-08-11T06:09:14.833Z,101124.22
2022-08-11T06:11:44.987Z,101126.91
2022-08-11T06:14:15.286Z,101125.66
2022-08-11T06:16:43.558Z,101129.31
2022-08-11T06:19:11.064Z,101131.53
2022-08-11T06:21:38.471Z,101127.84
2022-08-11T06:24:13.053Z,101137.53
2022-08-11T06:27:11.135Z,101136.78
2022-08-11T06:29:47.904Z,101135.81
2022-08-11T06:32:16.677Z,101137.44
2022-08-11T06:35:12.650Z,101136.81
2022-08-11T06:38:03.956Z,101137.31
2022-08-11T06:41:22.005Z,101135.56
2022-08-11T06:44:05.964Z,101138.38
2022-08-11T06:46:41.419Z,101135.44
2022-08-11T06:49:40.929Z,101145.78
2022-08-11T06:52:35.099Z,101138.69
2022-08-11T06:55:56.596Z,101137.56
2022-08-11T06:58:23.016Z,101129.94
2022-08-11T07:00:55.079Z,101123.31
2022-08-11T07:03:23.420Z,101131.59
2022-08-11T07:06:04.073Z,101119.56
2022-08-11T07:09:25.572Z,101127.06
2022-08-11T07:12:25.878Z,101116.72
2022-08-11T07:15:14.273Z,101117.81
2022-08-11T07:18:12.324Z,101120.81
2022-08-11T07:21:02.141Z,101115.94
2022-08-11T07:23:53.182Z,101120.53
2022-08-11T07:26:43.108Z,101118.56
2022-08-11T07:29:14.683Z,101113.19
2022-08-11T07:31:46.667Z,101111.59
2022-08-11T07:34:27.864Z,101112.38
2022-08-11T07:36:57.622Z,101107.09
2022-08-11T07:39:32.276Z,101104.53
2022-08-11T07:42:06.555Z,101096.56
2022-08-11T07:44:55.499Z,101096.09
2022-08-11T07:47:42.493Z,101107.44
2022-08-11T07:50:29.071Z,101104.25
2022-08-11T07:53:03.343Z,101106.34
2022-08-11T07:55:51.099Z,101101.72
2022-08-11T07:58:45.638Z,101095.88
2022-08-11T08:01:46.041Z,101109.56
2022-08-11T08:04:34.955Z,101099.91
2022-08-11T08:07:23.077Z,101095.06
2022-08-11T08:10:09.605Z,101096.44
2022-08-11T08:13:00.588Z,101104.81
2022-08-11T08:15:46.985Z,101103.56
2022-08-11T08:18:26.675Z,101105.72
2022-08-11T08:21:11.796Z,101091.28
2022-08-11T08:23:42.345Z,101093.59
2022-08-11T08:26:31.926Z,101089.34
2022-08-11T08:29:21.739Z,101099.34
2022-08-11T08:31:49.708Z,101095.44
2022-08-11T08:34:17.901Z,101087.22
2022-08-11T08:36:51.007Z,101094.31
2022-08-11T08:39:22.805Z,101091.59
2022-08-11T08:41:54.646Z,101087.94
2022-08-11T08:44:41.179Z,101081.84
2022-08-11T08:47:15.124Z,101076.88
2022-08-11T08:50:21.314Z,101081.97
2022-08-11T08:53:05.707Z,101087.59
2022-08-11T08:55:33.679Z,101087.09
2022-08-11T08:58:02.231Z,101081.09
2022-08-11T09:00:51.788Z,101076.75
2022-08-11T09:06:07.674Z,101086.53
2022-08-11T09:08:35.296Z,101085.09
2022-08-11T09:11:24.737Z,101083.78
2022-08-11T09:14:05.139Z,101080.59
2022-08-11T09:16:36.272Z,101074.31
2022-08-11T09:19:03.983Z,101079.16
2022-08-11T09:21:39.333Z,101080.00
2022-08-11T09:24:34.555Z,101086.84
2022-08-11T09:27:07.150Z,101090.50
2022-08-11T09:29:35.099Z,101089.13
2022-08-11T09:32:02.692Z,101083.56
2022-08-11T09:34:30.000Z,101088.19
2022-08-11T09:37:28.380Z,101097.59
2022-08-11T09:40:27.309Z,101111.69
2022-08-11T09:43:17.646Z,101095.03
2022-08-11T09:45:51.326Z,101088.84
2022-08-11T09:48:24.416Z,101082.94
2022-08-11T09:50:55.189Z,101075.31
2022-08-11T09:53:36.167Z,101077.38
2022-08-11T09:56:28.200Z,101086.78
2022-08-11T09:58:55.384Z,101078.84
2022-08-11T10:01:27.417Z,101072.28
2022-08-11T10:04:31.144Z,101089.34
2022-08-11T10:07:10.543Z,101071.88
2022-08-11T10:09:51.060Z,101065.16
2022-08-11T10:12:25.804Z,101068.75
2022-08-11T10:15:38.267Z,101065.09
2022-08-11T10:18:30.580Z,101058.28
2022-08-11T10:21:10.426Z,101052.03
2022-08-11T10:26:56.742Z,101064.97
2022-08-11T10:29:50.067Z,101049.47
2022-08-11T10:32:58.471Z,101072.34
2022-08-11T10:35:32.621Z,101045.59
2022-08-11T10:38:08.492Z,101049.75
2022-08-11T10:40:40.512Z,101056.34
2022-08-11T10:43:53.339Z,101047.69
2022-08-11T10:46:28.556Z,101058.84
2022-08-11T10:48:59.107Z,101044.00
2022-08-11T10:51:51.240Z,101039.50
2022-08-11T10:54:39.272Z,101039.53
2022-08-11T10:57:24.942Z,101030.47
2022-08-11T10:59:56.512Z,101027.06
2022-08-11T11:02:24.109Z,101023.63
2022-08-11T11:05:29.731Z,101022.13
2022-08-11T11:08:32.593Z,101019.66
2022-08-11T11:11:01.455Z,101005.69
2022-08-11T11:13:53.307Z,101011.91
2022-08-11T11:16:43.287Z,100990.84
2022-08-11T11:19:12.177Z,101015.34
2022-08-11T11:21:42.301Z,101004.66
2022-08-11T11:24:39.932Z,100999.91
2022-08-11T11:27:57.216Z,101004.81
2022-08-11T11:30:35.876Z,100991.47
2022-08-11T11:33:15.261Z,100988.19
2022-08-11T11:35:56.922Z,100976.34
2022-08-11T11:38:23.971Z,100984.53
2022-08-11T11:41:11.259Z,100976.78
2022-08-11T11:43:38.742Z,100972.13
2022-08-11T11:46:07.792Z,100970.72
2022-08-11T11:48:37.403Z,100971.50
2022-08-11T11:51:04.936Z,100988.63
2022-08-11T11:53:32.034Z,100964.94
2022-08-11T11:56:00.393Z,100963.78
2022-08-11T11:58:46.712Z,100956.31
2022-08-11T12:01:18.916Z,100962.41
2022-08-11T12:03:53.049Z,100968.41
2022-08-11T12:06:23.421Z,100963.31
2022-08-11T12:08:54.008Z,100973.34
2022-08-11T12:11:43.709Z,100941.50
2022-08-11T12:14:12.345Z,100955.00
2022-08-11T12:16:45.129Z,100939.19
2022-08-11T12:19:21.442Z,100957.84
2022-08-11T12:22:07.598Z,100934.25
2022-08-11T12:24:54.901Z,100940.81
2022-08-11T12:27:24.203Z,100930.41
2022-08-11T12:29:57.332Z,100926.19
2022-08-11T12:32:31.465Z,100922.56
2022-08-11T12:34:58.702Z,100917.66
2022-08-11T12:37:43.630Z,100934.13
2022-08-11T12:40:56.547Z,100927.69
2022-08-11T12:43:57.028Z,100909.19
2022-08-11T12:46:31.782Z,100905.22
2022-08-11T12:49:31.229Z,100896.91
2022-08-11T12:52:12.816Z,100906.75
2022-08-11T12:55:12.969Z,100921.63
2022-08-11T12:58:04.455Z,100906.16
2022-08-11T13:00:51.141Z,100905.94
2022-08-11T13:03:39.401Z,100904.19
2022-08-11T13:06:07.782Z,100885.31
2022-08-11T13:08:38.189Z,100884.03
2022-08-11T13:11:24.324Z,100878.63
2022-08-11T13:13:57.800Z,100879.38
2022-08-11T13:16:52.931Z,100876.66
2022-08-11T13:19:21.633Z,100860.94
2022-08-11T13:21:50.132Z,100860.84
2022-08-11T13:24:19.024Z,100865.75
2022-08-11T13:26:50.005Z,100854.53
2022-08-11T13:29:21.180Z,100850.97
2022-08-11T13:31:49.249Z,100842.09
2022-08-11T13:34:18.528Z,100850.97
2022-08-11T13:36:52.879Z,100850.56
2022-08-11T13:39:30.279Z,100852.81
2022-08-11T13:42:01.060Z,100851.41
2022-08-11T13:44:36.036Z,100855.31
2022-08-11T13:47:06.796Z,100849.34
2022-08-11T13:49:40.296Z,100845.50
2022-08-11T13:52:14.939Z,100837.84
2022-08-11T13:54:43.673Z,100832.09
2022-08-11T13:58:07.684Z,100818.84
2022-08-11T14:00:13.400Z,100832.84
2022-08-11T14:02:54.142Z,100839.31
2022-08-11T14:05:28.635Z,100821.63
2022-08-11T14:08:37.016Z,100821.31
2022-08-11T14:12:21.846Z,100805.38
2022-08-11T14:14:11.307Z,100812.16
2022-08-11T14:16:43.134Z,100802.91
2022-08-11T14:19:14.836Z,100810.38
2022-08-11T14:22:07.022Z,100794.31
2022-08-11T14:24:45.236Z,100798.59
2022-08-11T14:27:39.130Z,100807.13
2022-08-11T14:30:01.624Z,100802.44
2022-08-11T14:32:28.628Z,100804.19
2022-08-11T14:34:55.950Z,100792.63
2022-08-11T14:37:25.789Z,100802.22
2022-08-11T14:40:21.348Z,100797.84
2022-08-11T14:43:07.129Z,100792.28
2022-08-11T14:45:58.290Z,100802.09
2022-08-11T14:48:27.282Z,100786.38
2022-08-11T14:50:54.420Z,100778.72
2022-08-11T14:53:23.460Z,100779.63
2022-08-11T14:56:09.859Z,100776.53
2022-08-11T14:58:37.377Z,100785.13
2022-08-11T15:01:28.176Z,100764.34
2022-08-11T15:04:34.473Z,100783.19
2022-08-11T15:06:43.576Z,100766.75
2022-08-11T15:09:10.555Z,100764.41
2022-08-11T15:12:32.641Z,100763.75
2022-08-11T15:15:20.421Z,100768.19
2022-08-11T15:17:49.414Z,100757.81
2022-08-11T15:20:38.580Z,100767.75
2022-08-11T15:23:24.716Z,100760.75
2022-08-11T15:25:58.863Z,100756.03
2022-08-11T15:28:48.641Z,100752.72
2022-08-11T15:31:29.014Z,100755.97
2022-08-11T15:34:21.773Z,100749.84
2022-08-11T15:37:09.048Z,100762.34
2022-08-11T15:40:08.108Z,100750.25
2022-08-11T15:43:29.162Z,100742.63
2022-08-11T15:46:02.181Z,100730.00
2022-08-11T15:48:46.232Z,100747.38
2022-08-11T15:51:25.221Z,100743.34
2022-08-11T15:53:58.890Z,100730.00
2022-08-11T15:56:32.050Z,100743.69
2022-08-11T15:59:41.217Z,100746.44
2022-08-11T16:02:33.001Z,100731.91
2022-08-11T16:05:06.023Z,100729.03
2022-08-11T16:07:38.419Z,100736.06
2022-08-11T16:10:21.557Z,100724.88
2022-08-11T16:13:06.266Z,100725.44
2022-08-11T16:16:04.210Z,100744.41
2022-08-11T16:18:41.229Z,100726.31
2022-08-11T16:21:26.101Z,100734.41
2022-08-11T16:24:05.233Z,100716.63
2022-08-11T16:27:10.192Z,100710.66
2022-08-11T16:29:23.172Z,100716.44
2022-08-11T16:32:12.203Z,100711.13
2022-08-11T16:34:59.286Z,100704.94
2022-08-11T16:37:45.979Z,100704.25
2022-08-11T16:40:13.527Z,100715.41
2022-08-11T16:43:10.379Z,100723.94
2022-08-11T16:45:59.954Z,100708.00
2022-08-11T16:48:36.325Z,100703.41
2022-08-11T16:51:07.570Z,100701.25
2022-08-11T16:53:54.927Z,100703.38
2022-08-11T16:56:44.510Z,100705.63
2022-08-11T16:59:32.471Z,100700.44
2022-08-11T17:02:41.513Z,100699.97
2022-08-11T17:05:34.455Z,100700.41
2022-08-11T17:08:27.257Z,100694.44
2022-08-11T17:11:21.979Z,100698.69
2022-08-11T17:14:07.952Z,100695.47
2022-08-11T17:16:38.926Z,100697.22
2022-08-11T17:19:14.432Z,100697.66
2022-08-11T17:22:04.366Z,100699.84
2022-08-11T17:24:44.319Z,100693.69
2022-08-11T17:27:16.446Z,100680.81
2022-08-11T17:30:04.099Z,100675.88
2022-08-11T17:33:00.797Z,100677.91
2022-08-11T17:35:38.927Z,100677.94
2022-08-11T17:38:09.306Z,100681.13
2022-08-11T17:40:39.935Z,100680.41
2022-08-11T17:43:27.811Z,100678.69
2022-08-11T17:46:15.742Z,100677.81
2022-08-11T17:48:47.643Z,100679.34
2022-08-11T17:51:38.718Z,100679.19
2022-08-11T17:54:26.410Z,100681.19
2022-08-11T17:57:20.268Z,100685.31
2022-08-11T17:59:52.876Z,100690.59
2022-08-11T18:03:00.649Z,100695.34
2022-08-11T18:05:31.484Z,100693.25
2022-08-11T18:08:19.534Z,100704.47
2022-08-11T18:11:06.319Z,100704.31
2022-08-11T18:13:56.117Z,100708.50
2022-08-11T18:16:42.558Z,100709.91
2022-08-11T18:19:30.709Z,100703.88
2022-08-11T18:22:28.188Z,100711.19
2022-08-11T18:25:20.769Z,100707.94
2022-08-11T18:28:12.076Z,100713.16
2022-08-11T18:31:03.810Z,100712.56
2022-08-11T18:34:08.154Z,100710.09
2022-08-11T18:37:08.579Z,100708.38
2022-08-11T18:40:12.793Z,100712.50
2022-08-11T18:43:00.901Z,100717.84
2022-08-11T18:45:46.618Z,100715.09
2022-08-11T18:48:41.498Z,100717.09
2022-08-11T18:51:30.642Z,100712.66
2022-08-11T18:54:27.541Z,100713.22
2022-08-11T18:57:18.829Z,100713.81
2022-08-11T19:00:06.021Z,100716.44
2022-08-11T19:02:55.986Z,100709.38
2022-08-11T19:06:36.108Z,100708.09
2022-08-11T19:08:58.897Z,100717.25
2022-08-11T19:11:46.219Z,100717.84
2022-08-11T19:14:33.280Z,100715.69
2022-08-11T19:17:43.285Z,100723.00
2022-08-11T19:20:33.913Z,100725.06
2022-08-11T19:23:22.241Z,100731.72
2022-08-11T19:26:08.280Z,100732.16
2022-08-11T19:28:55.784Z,100725.22
2022-08-11T19:31:44.801Z,100730.25
2022-08-11T19:34:38.570Z,100730.25
2022-08-11T19:37:26.162Z,100732.72
2022-08-11T19:40:17.434Z,100738.34
2022-08-11T19:43:04.518Z,100745.78
2022-08-11T19:46:05.609Z,100738.13
2022-08-11T19:48:51.383Z,100730.31
2022-08-11T19:51:38.784Z,100735.44
2022-08-11T19:54:25.293Z,100743.16
2022-08-11T19:57:15.097Z,100741.84
2022-08-11T20:00:01.263Z,100731.41
2022-08-11T20:02:47.646Z,100740.31
2022-08-11T20:05:33.400Z,100733.75
2022-08-11T20:08:19.217Z,100732.91
2022-08-11T20:11:06.445Z,100736.44
2022-08-11T20:13:53.303Z,100739.53
2022-08-11T20:16:40.765Z,100733.56
2022-08-11T20:19:55.301Z,100729.88
2022-08-11T20:22:35.087Z,100737.09
2022-08-11T20:25:23.438Z,100737.50
2022-08-11T20:28:12.242Z,100744.13
2022-08-11T20:30:59.439Z,100741.66
2022-08-11T20:33:45.032Z,100746.63
2022-08-11T20:36:31.893Z,100750.94
2022-08-11T20:39:19.651Z,100752.59
2022-08-11T20:42:07.393Z,100751.38
2022-08-11T20:44:55.660Z,100744.59
2022-08-11T20:47:59.639Z,100747.50
2022-08-11T20:50:47.053Z,100752.28
2022-08-11T20:53:39.076Z,100750.22
2022-08-11T20:56:28.571Z,100747.53
2022-08-11T20:59:21.643Z,100746.50
2022-08-11T21:02:09.879Z,100747.34
2022-08-11T21:05:00.356Z,100747.00
2022-08-11T21:07:57.255Z,100746.81
2022-08-11T21:10:50.555Z,100748.50
2022-08-11T21:13:42.526Z,100752.78
2022-08-11T21:16:37.173Z,100741.69
2022-08-11T21:20:00.764Z,100745.47
2022-08-11T21:23:05.297Z,100761.06
2022-08-11T21:26:02.138Z,100754.34
2022-08-11T21:28:49.789Z,100754.34
2022-08-11T21:31:36.967Z,100751.69
2022-08-11T21:34:24.904Z,100752.06
2022-08-11T21:37:11.602Z,100740.38
2022-08-11T21:39:58.582Z,100750.25
2022-08-11T21:42:45.054Z,100751.69
2022-08-11T21:45:32.901Z,100751.69
2022-08-11T21:48:19.438Z,100748.22
2022-08-11T21:51:05.007Z,100745.16
2022-08-11T21:53:51.841Z,100760.16
2022-08-11T21:56:38.317Z,100756.84
2022-08-11T21:59:27.144Z,100760.38
2022-08-11T22:02:13.231Z,100750.31
2022-08-11T22:05:00.336Z,100749.13
2022-08-11T22:07:47.113Z,100758.97
2022-08-11T22:10:41.493Z,100756.31
2022-08-11T22:13:31.554Z,100754.84
2022-08-11T22:16:18.798Z,100758.75
2022-08-11T22:19:08.597Z,100758.56
2022-08-11T22:22:01.835Z,100758.97
2022-08-11T22:24:51.651Z,100768.84
2022-08-11T22:27:38.095Z,100774.59
2022-08-11T22:30:29.406Z,100774.78
2022-08-11T22:33:21.772Z,100764.91
2022-08-11T22:36:13.562Z,100761.84
2022-08-11T22:39:01.047Z,100766.75
2022-08-11T22:41:47.294Z,100759.16
2022-08-11T22:44:32.737Z,100762.19
2022-08-11T22:47:20.143Z,100759.09
2022-08-11T22:50:11.619Z,100767.53
2022-08-11T22:52:57.391Z,100752.72
2022-08-11T22:55:44.713Z,100762.13
2022-08-11T22:58:31.065Z,100754.13
2022-08-11T23:01:18.113Z,100761.97
2022-08-11T23:04:05.865Z,100754.91
2022-08-11T23:06:53.667Z,100756.97
2022-08-11T23:09:42.150Z,100761.28
2022-08-11T23:12:28.587Z,100761.50
2022-08-11T23:15:14.540Z,100759.63
2022-08-11T23:18:00.537Z,100765.78
2022-08-11T23:20:50.557Z,100761.66
2022-08-11T23:23:39.246Z,100766.38
2022-08-11T23:26:25.988Z,100770.28
2022-08-11T23:29:14.089Z,100775.41
2022-08-11T23:32:00.527Z,100767.31
2022-08-11T23:35:04.668Z,100765.91
2022-08-11T23:37:59.789Z,100766.88
2022-08-11T23:40:45.507Z,100760.69
2022-08-11T23:43:42.894Z,100766.06
2022-08-11T23:46:28.982Z,100755.84
2022-08-11T23:49:24.244Z,100765.59
2022-08-11T23:52:11.433Z,100757.34
2022-08-11T23:54:58.057Z,100752.22
2022-08-11T23:57:48.954Z,100751.19
